sensor_id;sensor_type;location;lat;lon;timestamp;temperature;humidity
7204;DHT22;3643;52.460;13.322;2024-03-17T00:01:02;3.50;99.90
7204;DHT22;3643;52.460;13.322;2024-03-17T00:03:30;3.50;99.90
7204;DHT22;3643;52.460;13.322;2024-03-17T00:05:58;3.60;99.90
7204;DHT22;3643;52.460;13.322;2024-03-17T00:08:26;3.50;99.90
7204;DHT22;3643;52.460;13.322;2024-03-17T00:10:53;3.50;99.90
7204;DHT22;3643;52.460;13.322;2024-03-17T00:13:20;3.50;99.90
7204;DHT22;3643;52.460;13.322;2024-03-17T00:15:47;3.40;99.90
7204;DHT22;3643;52.460;13.322;2024-03-17T00:18:15;3.50;99.90
7204;DHT22;3643;52.460;13.322;2024-03-17T00:20:41;3.40;99.90
7204;DHT22;3643;52.460;13.322;2024-03-17T00:23:10;3.40;99.90
7204;DHT22;3643;52.460;13.322;2024-03-17T00:25:38;3.30;99.90
7204;DHT22;3643;52.460;13.322;2024-03-17T00:28:06;3.30;99.90
7204;DHT22;3643;52.460;13.322;2024-03-17T00:30:32;3.20;99.90
7204;DHT22;3643;52.460;13.322;2024-03-17T00:32:59;3.20;99.90
7204;DHT22;3643;52.460;13.322;2024-03-17T00:35:26;3.20;99.90
7204;DHT22;3643;52.460;13.322;2024-03-17T00:37:53;3.20;99.90
7204;DHT22;3643;52.460;13.322;2024-03-17T00:40:21;3.30;99.90
7204;DHT22;3643;52.460;13.322;2024-03-17T00:42:48;3.20;99.90
7204;DHT22;3643;52.460;13.322;2024-03-17T00:45:15;3.20;99.90
7204;DHT22;3643;52.460;13.322;2024-03-17T00:47:42;3.50;99.90
7204;DHT22;3643;52.460;13.322;2024-03-17T00:50:10;3.20;99.90
7204;DHT22;3643;52.460;13.322;2024-03-17T00:52:37;3.20;99.90
7204;DHT22;3643;52.460;13.322;2024-03-17T00:55:05;3.10;99.90
7204;DHT22;3643;52.460;13.322;2024-03-17T00:57:33;3.20;99.90
7204;DHT22;3643;52.460;13.322;2024-03-17T01:00:00;3.20;99.90
7204;DHT22;3643;52.460;13.322;2024-03-17T01:02:26;3.20;99.90
7204;DHT22;3643;52.460;13.322;2024-03-17T01:04:54;3.10;99.90
7204;DHT22;3643;52.460;13.322;2024-03-17T01:07:20;3.10;99.90
7204;DHT22;3643;52.460;13.322;2024-03-17T01:09:47;3.10;99.90
7204;DHT22;3643;52.460;13.322;2024-03-17T01:12:13;3.10;99.90
7204;DHT22;3643;52.460;13.322;2024-03-17T01:14:42;3.00;99.90
7204;DHT22;3643;52.460;13.322;2024-03-17T01:17:08;3.00;99.90
7204;DHT22;3643;52.460;13.322;2024-03-17T01:19:36;2.90;99.90
7204;DHT22;3643;52.460;13.322;2024-03-17T01:22:02;2.90;99.90
7204;DHT22;3643;52.460;13.322;2024-03-17T01:24:29;2.80;99.90
7204;DHT22;3643;52.460;13.322;2024-03-17T01:26:57;2.80;99.90
7204;DHT22;3643;52.460;13.322;2024-03-17T01:29:26;2.80;99.90
7204;DHT22;3643;52.460;13.322;2024-03-17T01:31:53;2.80;99.90
7204;DHT22;3643;52.460;13.322;2024-03-17T01:34:21;2.70;99.90
7204;DHT22;3643;52.460;13.322;2024-03-17T01:36:47;2.70;99.90
7204;DHT22;3643;52.460;13.322;2024-03-17T01:39:14;2.70;99.90
7204;DHT22;3643;52.460;13.322;2024-03-17T01:41:42;2.70;99.90
7204;DHT22;3643;52.460;13.322;2024-03-17T01:44:22;2.70;99.90
7204;DHT22;3643;52.460;13.322;2024-03-17T01:46:49;2.60;99.90
7204;DHT22;3643;52.460;13.322;2024-03-17T01:49:18;2.60;99.90
7204;DHT22;3643;52.460;13.322;2024-03-17T01:51:45;2.60;99.90
7204;DHT22;3643;52.460;13.322;2024-03-17T01:54:13;2.50;99.90
7204;DHT22;3643;52.460;13.322;2024-03-17T01:56:41;2.50;99.90
7204;DHT22;3643;52.460;13.322;2024-03-17T01:59:09;2.50;99.90
7204;DHT22;3643;52.460;13.322;2024-03-17T02:01:36;2.40;99.90
7204;DHT22;3643;52.460;13.322;2024-03-17T02:04:04;2.40;99.90
7204;DHT22;3643;52.460;13.322;2024-03-17T02:06:32;2.40;99.90
7204;DHT22;3643;52.460;13.322;2024-03-17T02:09:00;2.40;99.90
7204;DHT22;3643;52.460;13.322;2024-03-17T02:11:29;2.40;99.90
7204;DHT22;3643;52.460;13.322;2024-03-17T02:13:55;2.40;99.90
7204;DHT22;3643;52.460;13.322;2024-03-17T02:16:23;2.40;99.90
7204;DHT22;3643;52.460;13.322;2024-03-17T02:18:54;2.40;99.90
7204;DHT22;3643;52.460;13.322;2024-03-17T02:21:21;2.40;99.90
7204;DHT22;3643;52.460;13.322;2024-03-17T02:23:50;2.40;99.90
7204;DHT22;3643;52.460;13.322;2024-03-17T02:26:18;2.30;99.90
7204;DHT22;3643;52.460;13.322;2024-03-17T02:28:46;2.30;99.90
7204;DHT22;3643;52.460;13.322;2024-03-17T02:31:14;2.30;99.90
7204;DHT22;3643;52.460;13.322;2024-03-17T02:33:42;2.20;99.90
7204;DHT22;3643;52.460;13.322;2024-03-17T02:36:10;2.20;99.90
7204;DHT22;3643;52.460;13.322;2024-03-17T02:38:38;2.20;99.90
7204;DHT22;3643;52.460;13.322;2024-03-17T02:41:24;2.20;99.90
7204;DHT22;3643;52.460;13.322;2024-03-17T02:43:52;2.20;99.90
7204;DHT22;3643;52.460;13.322;2024-03-17T02:46:19;2.10;99.90
7204;DHT22;3643;52.460;13.322;2024-03-17T02:48:50;2.10;99.90
7204;DHT22;3643;52.460;13.322;2024-03-17T02:51:18;2.10;99.90
7204;DHT22;3643;52.460;13.322;2024-03-17T02:53:47;2.10;99.90
7204;DHT22;3643;52.460;13.322;2024-03-17T02:56:15;2.00;99.90
7204;DHT22;3643;52.460;13.322;2024-03-17T02:58:45;2.10;99.90
7204;DHT22;3643;52.460;13.322;2024-03-17T03:01:13;2.00;99.90
7204;DHT22;3643;52.460;13.322;2024-03-17T03:03:41;2.00;99.90
7204;DHT22;3643;52.460;13.322;2024-03-17T03:06:11;1.90;99.90
7204;DHT22;3643;52.460;13.322;2024-03-17T03:08:39;2.00;99.90
7204;DHT22;3643;52.460;13.322;2024-03-17T03:11:08;1.90;99.90
7204;DHT22;3643;52.460;13.322;2024-03-17T03:13:37;1.90;99.90
7204;DHT22;3643;52.460;13.322;2024-03-17T03:16:07;1.90;99.90
7204;DHT22;3643;52.460;13.322;2024-03-17T03:18:35;1.90;99.90
7204;DHT22;3643;52.460;13.322;2024-03-17T03:21:03;1.90;99.90
7204;DHT22;3643;52.460;13.322;2024-03-17T03:23:30;1.80;99.90
7204;DHT22;3643;52.460;13.322;2024-03-17T03:25:59;1.80;99.90
7204;DHT22;3643;52.460;13.322;2024-03-17T03:28:30;1.70;99.90
7204;DHT22;3643;52.460;13.322;2024-03-17T03:30:59;1.70;99.90
7204;DHT22;3643;52.460;13.322;2024-03-17T03:33:29;1.70;99.90
7204;DHT22;3643;52.460;13.322;2024-03-17T03:35:56;1.70;99.90
7204;DHT22;3643;52.460;13.322;2024-03-17T03:38:24;1.70;99.90
7204;DHT22;3643;52.460;13.322;2024-03-17T03:40:51;1.80;99.90
7204;DHT22;3643;52.460;13.322;2024-03-17T03:43:19;1.70;99.90
7204;DHT22;3643;52.460;13.322;2024-03-17T03:45:47;1.60;99.90
7204;DHT22;3643;52.460;13.322;2024-03-17T03:48:14;1.60;99.90
7204;DHT22;3643;52.460;13.322;2024-03-17T03:50:43;1.60;99.90
7204;DHT22;3643;52.460;13.322;2024-03-17T03:53:10;1.60;99.90
7204;DHT22;3643;52.460;13.322;2024-03-17T03:55:38;1.60;99.90
7204;DHT22;3643;52.460;13.322;2024-03-17T03:58:05;1.60;99.90
7204;DHT22;3643;52.460;13.322;2024-03-17T04:00:32;1.60;99.90
7204;DHT22;3643;52.460;13.322;2024-03-17T04:03:00;1.50;99.90
7204;DHT22;3643;52.460;13.322;2024-03-17T04:05:28;1.60;99.90
7204;DHT22;3643;52.460;13.322;2024-03-17T04:07:57;1.50;99.90
7204;DHT22;3643;52.460;13.322;2024-03-17T04:10:24;1.50;99.90
7204;DHT22;3643;52.460;13.322;2024-03-17T04:12:51;1.50;99.90
7204;DHT22;3643;52.460;13.322;2024-03-17T04:15:19;1.50;99.90
7204;DHT22;3643;52.460;13.322;2024-03-17T04:17:46;1.50;99.90
7204;DHT22;3643;52.460;13.322;2024-03-17T04:20:14;1.40;99.90
7204;DHT22;3643;52.460;13.322;2024-03-17T04:22:42;1.40;99.90
7204;DHT22;3643;52.460;13.322;2024-03-17T04:25:11;1.40;99.90
7204;DHT22;3643;52.460;13.322;2024-03-17T04:27:39;1.40;99.90
7204;DHT22;3643;52.460;13.322;2024-03-17T04:30:07;1.40;99.90
7204;DHT22;3643;52.460;13.322;2024-03-17T04:32:37;1.40;99.90
7204;DHT22;3643;52.460;13.322;2024-03-17T04:35:05;1.40;99.90
7204;DHT22;3643;52.460;13.322;2024-03-17T04:37:33;1.50;99.90
7204;DHT22;3643;52.460;13.322;2024-03-17T04:40:06;1.50;99.90
7204;DHT22;3643;52.460;13.322;2024-03-17T04:42:37;1.40;99.90
7204;DHT22;3643;52.460;13.322;2024-03-17T04:45:07;1.40;99.90
7204;DHT22;3643;52.460;13.322;2024-03-17T04:47:36;1.40;99.90
7204;DHT22;3643;52.460;13.322;2024-03-17T04:50:04;1.30;99.90
7204;DHT22;3643;52.460;13.322;2024-03-17T04:52:32;1.30;99.90
7204;DHT22;3643;52.460;13.322;2024-03-17T04:54:59;1.30;99.90
7204;DHT22;3643;52.460;13.322;2024-03-17T04:57:26;1.20;99.90
7204;DHT22;3643;52.460;13.322;2024-03-17T04:59:55;1.20;99.90
7204;DHT22;3643;52.460;13.322;2024-03-17T05:02:22;1.20;99.90
7204;DHT22;3643;52.460;13.322;2024-03-17T05:04:50;1.20;99.90
7204;DHT22;3643;52.460;13.322;2024-03-17T05:07:17;1.20;99.90
7204;DHT22;3643;52.460;13.322;2024-03-17T05:09:44;1.20;99.90
7204;DHT22;3643;52.460;13.322;2024-03-17T05:12:11;1.10;99.90
7204;DHT22;3643;52.460;13.322;2024-03-17T05:14:39;1.10;99.90
7204;DHT22;3643;52.460;13.322;2024-03-17T05:17:08;1.20;99.90
7204;DHT22;3643;52.460;13.322;2024-03-17T05:19:35;1.10;99.90
7204;DHT22;3643;52.460;13.322;2024-03-17T05:22:03;1.10;99.90
7204;DHT22;3643;52.460;13.322;2024-03-17T05:24:30;1.10;99.90
7204;DHT22;3643;52.460;13.322;2024-03-17T05:26:58;1.20;99.90
7204;DHT22;3643;52.460;13.322;2024-03-17T05:29:25;1.20;99.90
7204;DHT22;3643;52.460;13.322;2024-03-17T05:31:52;1.20;99.90
7204;DHT22;3643;52.460;13.322;2024-03-17T05:34:21;1.20;99.90
7204;DHT22;3643;52.460;13.322;2024-03-17T05:36:50;1.30;99.90
7204;DHT22;3643;52.460;13.322;2024-03-17T05:39:17;1.30;99.90
7204;DHT22;3643;52.460;13.322;2024-03-17T05:41:46;1.30;99.90
7204;DHT22;3643;52.460;13.322;2024-03-17T05:44:15;1.40;99.90
7204;DHT22;3643;52.460;13.322;2024-03-17T05:46:42;1.40;99.90
7204;DHT22;3643;52.460;13.322;2024-03-17T05:49:10;1.30;99.90
7204;DHT22;3643;52.460;13.322;2024-03-17T05:51:38;1.50;99.90
7204;DHT22;3643;52.460;13.322;2024-03-17T05:54:06;1.60;99.90
7204;DHT22;3643;52.460;13.322;2024-03-17T05:56:33;1.60;99.90
7204;DHT22;3643;52.460;13.322;2024-03-17T05:59:01;1.70;99.90
7204;DHT22;3643;52.460;13.322;2024-03-17T06:01:28;1.70;99.90
7204;DHT22;3643;52.460;13.322;2024-03-17T06:03:56;1.70;99.90
7204;DHT22;3643;52.460;13.322;2024-03-17T06:06:23;1.90;99.90
7204;DHT22;3643;52.460;13.322;2024-03-17T06:08:51;1.90;99.90
7204;DHT22;3643;52.460;13.322;2024-03-17T06:11:18;2.00;99.90
7204;DHT22;3643;52.460;13.322;2024-03-17T06:13:46;2.10;99.90
7204;DHT22;3643;52.460;13.322;2024-03-17T06:16:13;2.30;99.90
7204;DHT22;3643;52.460;13.322;2024-03-17T06:18:40;2.70;99.90
7204;DHT22;3643;52.460;13.322;2024-03-17T06:21:07;3.20;99.90
7204;DHT22;3643;52.460;13.322;2024-03-17T06:23:35;3.90;99.90
7204;DHT22;3643;52.460;13.322;2024-03-17T06:26:04;5.00;99.90
7204;DHT22;3643;52.460;13.322;2024-03-17T06:28:32;6.30;99.90
7204;DHT22;3643;52.460;13.322;2024-03-17T06:30:59;7.30;99.90
7204;DHT22;3643;52.460;13.322;2024-03-17T06:33:28;8.20;99.90
7204;DHT22;3643;52.460;13.322;2024-03-17T06:35:57;9.10;99.90
7204;DHT22;3643;52.460;13.322;2024-03-17T06:38:25;9.80;99.90
7204;DHT22;3643;52.460;13.322;2024-03-17T06:40:52;11.10;99.90
7204;DHT22;3643;52.460;13.322;2024-03-17T06:43:32;12.10;99.90
7204;DHT22;3643;52.460;13.322;2024-03-17T06:46:00;13.00;99.90
7204;DHT22;3643;52.460;13.322;2024-03-17T06:48:29;13.40;99.90
7204;DHT22;3643;52.460;13.322;2024-03-17T06:50:56;13.50;99.90
7204;DHT22;3643;52.460;13.322;2024-03-17T06:53:23;13.90;99.90
7204;DHT22;3643;52.460;13.322;2024-03-17T06:55:55;14.30;99.90
7204;DHT22;3643;52.460;13.322;2024-03-17T06:58:24;14.10;99.90
7204;DHT22;3643;52.460;13.322;2024-03-17T07:00:55;14.80;99.90
7204;DHT22;3643;52.460;13.322;2024-03-17T07:03:25;15.20;99.70
7204;DHT22;3643;52.460;13.322;2024-03-17T07:05:54;14.80;98.40
7204;DHT22;3643;52.460;13.322;2024-03-17T07:08:21;13.70;99.60
7204;DHT22;3643;52.460;13.322;2024-03-17T07:10:59;12.70;99.90
7204;DHT22;3643;52.460;13.322;2024-03-17T07:13:29;12.60;99.90
7204;DHT22;3643;52.460;13.322;2024-03-17T07:15:58;12.40;99.90
7204;DHT22;3643;52.460;13.322;2024-03-17T07:18:26;12.40;99.90
7204;DHT22;3643;52.460;13.322;2024-03-17T07:20:53;11.70;99.90
7204;DHT22;3643;52.460;13.322;2024-03-17T07:23:20;12.20;99.90
7204;DHT22;3643;52.460;13.322;2024-03-17T07:25:54;11.90;99.90
7204;DHT22;3643;52.460;13.322;2024-03-17T07:28:23;12.10;99.90
7204;DHT22;3643;52.460;13.322;2024-03-17T07:30:51;11.20;99.90
7204;DHT22;3643;52.460;13.322;2024-03-17T07:33:20;11.00;99.90
7204;DHT22;3643;52.460;13.322;2024-03-17T07:35:48;10.50;99.90
7204;DHT22;3643;52.460;13.322;2024-03-17T07:38:16;9.90;99.90
7204;DHT22;3643;52.460;13.322;2024-03-17T07:40:43;9.80;99.90
7204;DHT22;3643;52.460;13.322;2024-03-17T07:43:10;9.70;99.90
7204;DHT22;3643;52.460;13.322;2024-03-17T07:45:38;9.80;99.90
7204;DHT22;3643;52.460;13.322;2024-03-17T07:48:06;9.70;99.90
7204;DHT22;3643;52.460;13.322;2024-03-17T07:50:34;9.60;99.90
7204;DHT22;3643;52.460;13.322;2024-03-17T07:53:04;9.30;99.90
7204;DHT22;3643;52.460;13.322;2024-03-17T07:55:32;9.20;99.90
7204;DHT22;3643;52.460;13.322;2024-03-17T07:57:59;9.10;99.90
7204;DHT22;3643;52.460;13.322;2024-03-17T08:00:26;9.00;99.90
7204;DHT22;3643;52.460;13.322;2024-03-17T08:02:54;8.80;99.90
7204;DHT22;3643;52.460;13.322;2024-03-17T08:05:21;8.50;99.90
7204;DHT22;3643;52.460;13.322;2024-03-17T08:07:50;8.80;99.90
7204;DHT22;3643;52.460;13.322;2024-03-17T08:10:18;8.10;99.90
7204;DHT22;3643;52.460;13.322;2024-03-17T08:12:45;7.90;99.90
7204;DHT22;3643;52.460;13.322;2024-03-17T08:15:12;7.80;99.90
7204;DHT22;3643;52.460;13.322;2024-03-17T08:17:40;7.70;99.90
7204;DHT22;3643;52.460;13.322;2024-03-17T08:20:08;7.70;99.90
7204;DHT22;3643;52.460;13.322;2024-03-17T08:22:35;7.70;99.90
7204;DHT22;3643;52.460;13.322;2024-03-17T08:25:04;7.60;99.90
7204;DHT22;3643;52.460;13.322;2024-03-17T08:27:31;7.60;99.90
7204;DHT22;3643;52.460;13.322;2024-03-17T08:29:59;7.30;99.90
7204;DHT22;3643;52.460;13.322;2024-03-17T08:32:26;7.30;99.90
7204;DHT22;3643;52.460;13.322;2024-03-17T08:34:54;7.30;99.90
7204;DHT22;3643;52.460;13.322;2024-03-17T08:37:21;7.20;99.90
7204;DHT22;3643;52.460;13.322;2024-03-17T08:39:52;7.10;99.90
7204;DHT22;3643;52.460;13.322;2024-03-17T08:42:20;7.10;99.90
7204;DHT22;3643;52.460;13.322;2024-03-17T08:44:48;7.10;99.90
7204;DHT22;3643;52.460;13.322;2024-03-17T08:47:15;7.20;99.90
7204;DHT22;3643;52.460;13.322;2024-03-17T08:49:42;7.20;99.90
7204;DHT22;3643;52.460;13.322;2024-03-17T08:52:09;7.10;99.90
7204;DHT22;3643;52.460;13.322;2024-03-17T08:54:37;7.30;99.90
7204;DHT22;3643;52.460;13.322;2024-03-17T08:57:04;7.30;99.90
7204;DHT22;3643;52.460;13.322;2024-03-17T08:59:33;7.20;99.90
7204;DHT22;3643;52.460;13.322;2024-03-17T09:02:01;7.50;99.90
7204;DHT22;3643;52.460;13.322;2024-03-17T09:04:29;7.60;99.90
7204;DHT22;3643;52.460;13.322;2024-03-17T09:06:56;7.50;99.90
7204;DHT22;3643;52.460;13.322;2024-03-17T09:09:24;7.20;99.90
7204;DHT22;3643;52.460;13.322;2024-03-17T09:11:52;7.10;99.90
7204;DHT22;3643;52.460;13.322;2024-03-17T09:14:19;7.20;99.90
7204;DHT22;3643;52.460;13.322;2024-03-17T09:16:49;7.40;99.90
7204;DHT22;3643;52.460;13.322;2024-03-17T09:19:16;7.60;99.90
7204;DHT22;3643;52.460;13.322;2024-03-17T09:21:44;7.80;99.90
7204;DHT22;3643;52.460;13.322;2024-03-17T09:24:11;8.10;99.90
7204;DHT22;3643;52.460;13.322;2024-03-17T09:26:38;8.20;99.90
7204;DHT22;3643;52.460;13.322;2024-03-17T09:29:06;8.30;99.90
7204;DHT22;3643;52.460;13.322;2024-03-17T09:31:33;8.30;99.90
7204;DHT22;3643;52.460;13.322;2024-03-17T09:34:02;8.20;99.90
7204;DHT22;3643;52.460;13.322;2024-03-17T09:36:30;8.20;99.90
7204;DHT22;3643;52.460;13.322;2024-03-17T09:38:58;8.20;99.90
7204;DHT22;3643;52.460;13.322;2024-03-17T09:41:26;8.30;99.90
7204;DHT22;3643;52.460;13.322;2024-03-17T09:43:56;8.20;99.90
7204;DHT22;3643;52.460;13.322;2024-03-17T09:46:25;8.30;99.90
7204;DHT22;3643;52.460;13.322;2024-03-17T09:48:54;8.30;99.90
7204;DHT22;3643;52.460;13.322;2024-03-17T09:51:25;8.30;99.90
7204;DHT22;3643;52.460;13.322;2024-03-17T09:53:52;8.10;99.90
7204;DHT22;3643;52.460;13.322;2024-03-17T09:56:21;8.20;99.90
7204;DHT22;3643;52.460;13.322;2024-03-17T09:58:48;8.30;99.90
7204;DHT22;3643;52.460;13.322;2024-03-17T10:01:15;8.20;99.90
7204;DHT22;3643;52.460;13.322;2024-03-17T10:03:44;8.10;99.90
7204;DHT22;3643;52.460;13.322;2024-03-17T10:06:13;7.70;99.90
7204;DHT22;3643;52.460;13.322;2024-03-17T10:08:43;7.30;99.90
7204;DHT22;3643;52.460;13.322;2024-03-17T10:11:11;7.30;99.90
7204;DHT22;3643;52.460;13.322;2024-03-17T10:13:38;7.70;99.90
7204;DHT22;3643;52.460;13.322;2024-03-17T10:16:06;8.20;99.90
7204;DHT22;3643;52.460;13.322;2024-03-17T10:18:33;8.80;99.90
7204;DHT22;3643;52.460;13.322;2024-03-17T10:21:00;9.00;99.90
7204;DHT22;3643;52.460;13.322;2024-03-17T10:23:27;9.20;99.90
7204;DHT22;3643;52.460;13.322;2024-03-17T10:25:56;9.20;99.90
7204;DHT22;3643;52.460;13.322;2024-03-17T10:28:24;9.10;99.90
7204;DHT22;3643;52.460;13.322;2024-03-17T10:30:58;8.50;99.90
7204;DHT22;3643;52.460;13.322;2024-03-17T10:33:27;8.40;99.90
7204;DHT22;3643;52.460;13.322;2024-03-17T10:36:01;8.30;99.90
7204;DHT22;3643;52.460;13.322;2024-03-17T10:38:31;8.30;99.90
7204;DHT22;3643;52.460;13.322;2024-03-17T10:41:02;8.40;99.90
7204;DHT22;3643;52.460;13.322;2024-03-17T10:43:31;8.50;99.90
7204;DHT22;3643;52.460;13.322;2024-03-17T10:45:59;8.70;99.90
7204;DHT22;3643;52.460;13.322;2024-03-17T10:48:31;8.90;99.90
7204;DHT22;3643;52.460;13.322;2024-03-17T10:50:59;8.90;99.90
7204;DHT22;3643;52.460;13.322;2024-03-17T10:53:29;8.80;99.90
7204;DHT22;3643;52.460;13.322;2024-03-17T10:56:05;8.60;99.90
7204;DHT22;3643;52.460;13.322;2024-03-17T10:58:36;8.80;99.90
7204;DHT22;3643;52.460;13.322;2024-03-17T11:01:04;8.70;99.90
7204;DHT22;3643;52.460;13.322;2024-03-17T11:03:34;9.10;99.90
7204;DHT22;3643;52.460;13.322;2024-03-17T11:06:04;9.40;99.90
7204;DHT22;3643;52.460;13.322;2024-03-17T11:08:32;9.80;99.90
7204;DHT22;3643;52.460;13.322;2024-03-17T11:11:01;10.10;99.90
7204;DHT22;3643;52.460;13.322;2024-03-17T11:13:31;10.00;99.90
7204;DHT22;3643;52.460;13.322;2024-03-17T11:15:59;10.00;99.90
7204;DHT22;3643;52.460;13.322;2024-03-17T11:18:37;10.20;99.90
7204;DHT22;3643;52.460;13.322;2024-03-17T11:24:01;10.30;99.80
7204;DHT22;3643;52.460;13.322;2024-03-17T11:26:30;10.00;99.90
7204;DHT22;3643;52.460;13.322;2024-03-17T11:29:00;9.90;99.50
7204;DHT22;3643;52.460;13.322;2024-03-17T11:31:43;9.70;99.10
7204;DHT22;3643;52.460;13.322;2024-03-17T11:34:32;9.40;99.90
7204;DHT22;3643;52.460;13.322;2024-03-17T11:37:01;9.50;99.90
7204;DHT22;3643;52.460;13.322;2024-03-17T11:39:52;9.60;99.90
7204;DHT22;3643;52.460;13.322;2024-03-17T11:42:23;9.80;99.90
7204;DHT22;3643;52.460;13.322;2024-03-17T11:45:03;9.80;99.90
7204;DHT22;3643;52.460;13.322;2024-03-17T11:47:39;9.90;99.90
7204;DHT22;3643;52.460;13.322;2024-03-17T11:50:08;10.10;99.20
7204;DHT22;3643;52.460;13.322;2024-03-17T11:52:36;10.10;99.00
7204;DHT22;3643;52.460;13.322;2024-03-17T11:55:05;10.10;99.00
7204;DHT22;3643;52.460;13.322;2024-03-17T11:57:31;10.40;99.20
7204;DHT22;3643;52.460;13.322;2024-03-17T11:59:58;10.60;98.80
7204;DHT22;3643;52.460;13.322;2024-03-17T12:02:29;10.50;98.70
7204;DHT22;3643;52.460;13.322;2024-03-17T12:04:58;10.50;98.10
7204;DHT22;3643;52.460;13.322;2024-03-17T12:07:24;10.60;98.20
7204;DHT22;3643;52.460;13.322;2024-03-17T12:09:54;10.80;98.70
7204;DHT22;3643;52.460;13.322;2024-03-17T12:12:23;10.90;98.40
7204;DHT22;3643;52.460;13.322;2024-03-17T12:14:52;10.80;98.40
7204;DHT22;3643;52.460;13.322;2024-03-17T12:17:21;10.70;98.70
7204;DHT22;3643;52.460;13.322;2024-03-17T12:19:50;10.60;99.00
7204;DHT22;3643;52.460;13.322;2024-03-17T12:22:18;10.50;98.80
7204;DHT22;3643;52.460;13.322;2024-03-17T12:24:48;10.50;98.20
7204;DHT22;3643;52.460;13.322;2024-03-17T12:27:17;10.60;98.20
7204;DHT22;3643;52.460;13.322;2024-03-17T12:29:46;10.80;97.60
7204;DHT22;3643;52.460;13.322;2024-03-17T12:32:14;10.90;97.60
7204;DHT22;3643;52.460;13.322;2024-03-17T12:34:43;11.00;97.70
7204;DHT22;3643;52.460;13.322;2024-03-17T12:37:16;10.90;97.40
7204;DHT22;3643;52.460;13.322;2024-03-17T12:39:44;10.90;97.60
7204;DHT22;3643;52.460;13.322;2024-03-17T12:42:11;10.80;97.80
7204;DHT22;3643;52.460;13.322;2024-03-17T12:44:40;10.70;98.10
7204;DHT22;3643;52.460;13.322;2024-03-17T12:47:14;10.60;97.80
7204;DHT22;3643;52.460;13.322;2024-03-17T12:49:45;10.60;97.10
7204;DHT22;3643;52.460;13.322;2024-03-17T12:52:17;10.80;97.40
7204;DHT22;3643;52.460;13.322;2024-03-17T12:54:58;10.50;97.10
7204;DHT22;3643;52.460;13.322;2024-03-17T12:57:39;10.70;97.50
7204;DHT22;3643;52.460;13.322;2024-03-17T13:00:24;10.70;97.40
7204;DHT22;3643;52.460;13.322;2024-03-17T13:03:00;10.70;97.50
7204;DHT22;3643;52.460;13.322;2024-03-17T13:05:28;10.70;97.50
7204;DHT22;3643;52.460;13.322;2024-03-17T13:07:58;10.80;97.40
7204;DHT22;3643;52.460;13.322;2024-03-17T13:10:26;10.90;96.90
7204;DHT22;3643;52.460;13.322;2024-03-17T13:13:00;10.90;97.10
7204;DHT22;3643;52.460;13.322;2024-03-17T13:15:33;11.10;97.10
7204;DHT22;3643;52.460;13.322;2024-03-17T13:18:01;11.10;97.10
7204;DHT22;3643;52.460;13.322;2024-03-17T13:20:30;11.30;96.80
7204;DHT22;3643;52.460;13.322;2024-03-17T13:22:59;11.00;96.50
7204;DHT22;3643;52.460;13.322;2024-03-17T13:25:28;11.00;96.80
7204;DHT22;3643;52.460;13.322;2024-03-17T13:28:01;11.10;96.80
7204;DHT22;3643;52.460;13.322;2024-03-17T13:30:30;11.20;96.40
7204;DHT22;3643;52.460;13.322;2024-03-17T13:32:59;11.20;96.60
7204;DHT22;3643;52.460;13.322;2024-03-17T13:35:28;11.30;96.40
7204;DHT22;3643;52.460;13.322;2024-03-17T13:37:56;11.40;96.50
7204;DHT22;3643;52.460;13.322;2024-03-17T13:40:27;11.30;96.30
7204;DHT22;3643;52.460;13.322;2024-03-17T13:42:55;11.30;96.60
7204;DHT22;3643;52.460;13.322;2024-03-17T13:45:26;11.00;95.60
7204;DHT22;3643;52.460;13.322;2024-03-17T13:47:58;11.00;95.80
7204;DHT22;3643;52.460;13.322;2024-03-17T13:50:26;10.90;95.60
7204;DHT22;3643;52.460;13.322;2024-03-17T13:52:53;10.70;96.00
7204;DHT22;3643;52.460;13.322;2024-03-17T13:55:22;10.60;96.00
7204;DHT22;3643;52.460;13.322;2024-03-17T13:57:53;10.70;96.20
7204;DHT22;3643;52.460;13.322;2024-03-17T14:00:22;10.90;95.90
7204;DHT22;3643;52.460;13.322;2024-03-17T14:02:50;10.80;95.80
7204;DHT22;3643;52.460;13.322;2024-03-17T14:05:20;10.80;95.90
7204;DHT22;3643;52.460;13.322;2024-03-17T14:07:48;10.70;95.90
7204;DHT22;3643;52.460;13.322;2024-03-17T14:10:17;10.60;95.90
7204;DHT22;3643;52.460;13.322;2024-03-17T14:12:45;10.60;96.10
7204;DHT22;3643;52.460;13.322;2024-03-17T14:15:15;10.70;96.10
7204;DHT22;3643;52.460;13.322;2024-03-17T14:17:44;10.80;96.20
7204;DHT22;3643;52.460;13.322;2024-03-17T14:20:13;10.70;96.20
7204;DHT22;3643;52.460;13.322;2024-03-17T14:22:44;10.60;96.00
7204;DHT22;3643;52.460;13.322;2024-03-17T14:25:16;10.70;96.40
7204;DHT22;3643;52.460;13.322;2024-03-17T14:27:44;10.70;96.40
7204;DHT22;3643;52.460;13.322;2024-03-17T14:30:17;10.50;95.90
7204;DHT22;3643;52.460;13.322;2024-03-17T14:32:44;10.60;96.40
7204;DHT22;3643;52.460;13.322;2024-03-17T14:35:13;10.50;96.50
7204;DHT22;3643;52.460;13.322;2024-03-17T14:37:41;10.40;96.70
7204;DHT22;3643;52.460;13.322;2024-03-17T14:40:09;10.20;96.60
7204;DHT22;3643;52.460;13.322;2024-03-17T14:42:43;10.20;96.80
7204;DHT22;3643;52.460;13.322;2024-03-17T14:45:11;10.10;96.70
7204;DHT22;3643;52.460;13.322;2024-03-17T14:47:40;10.00;97.00
7204;DHT22;3643;52.460;13.322;2024-03-17T14:50:07;9.90;97.50
7204;DHT22;3643;52.460;13.322;2024-03-17T14:52:35;9.90;97.50
7204;DHT22;3643;52.460;13.322;2024-03-17T14:55:02;9.80;97.60
7204;DHT22;3643;52.460;13.322;2024-03-17T14:57:30;9.60;97.10
7204;DHT22;3643;52.460;13.322;2024-03-17T14:59:57;9.50;97.20
7204;DHT22;3643;52.460;13.322;2024-03-17T15:02:25;9.40;97.10
7204;DHT22;3643;52.460;13.322;2024-03-17T15:04:54;9.30;97.40
7204;DHT22;3643;52.460;13.322;2024-03-17T15:07:21;9.40;97.50
7204;DHT22;3643;52.460;13.322;2024-03-17T15:09:49;9.50;97.60
7204;DHT22;3643;52.460;13.322;2024-03-17T15:12:16;9.50;97.60
7204;DHT22;3643;52.460;13.322;2024-03-17T15:14:43;9.40;97.50
7204;DHT22;3643;52.460;13.322;2024-03-17T15:17:13;9.50;97.50
7204;DHT22;3643;52.460;13.322;2024-03-17T15:19:41;9.40;97.40
7204;DHT22;3643;52.460;13.322;2024-03-17T15:22:10;9.40;97.60
7204;DHT22;3643;52.460;13.322;2024-03-17T15:24:37;9.40;97.60
7204;DHT22;3643;52.460;13.322;2024-03-17T15:27:05;9.30;97.40
7204;DHT22;3643;52.460;13.322;2024-03-17T15:29:32;9.30;97.50
7204;DHT22;3643;52.460;13.322;2024-03-17T15:31:59;9.30;97.80
7204;DHT22;3643;52.460;13.322;2024-03-17T15:34:26;9.10;97.70
7204;DHT22;3643;52.460;13.322;2024-03-17T15:36:57;9.30;97.90
7204;DHT22;3643;52.460;13.322;2024-03-17T15:39:25;8.80;97.60
7204;DHT22;3643;52.460;13.322;2024-03-17T15:41:54;9.30;97.50
7204;DHT22;3643;52.460;13.322;2024-03-17T15:44:21;9.30;97.70
7204;DHT22;3643;52.460;13.322;2024-03-17T15:46:48;9.30;97.80
7204;DHT22;3643;52.460;13.322;2024-03-17T15:49:15;9.10;97.90
7204;DHT22;3643;52.460;13.322;2024-03-17T15:51:42;9.00;98.10
7204;DHT22;3643;52.460;13.322;2024-03-17T15:54:10;9.00;97.90
7204;DHT22;3643;52.460;13.322;2024-03-17T15:56:40;8.90;97.90
7204;DHT22;3643;52.460;13.322;2024-03-17T15:59:07;9.00;97.90
7204;DHT22;3643;52.460;13.322;2024-03-17T16:01:35;8.90;97.90
7204;DHT22;3643;52.460;13.322;2024-03-17T16:04:03;8.80;98.00
7204;DHT22;3643;52.460;13.322;2024-03-17T16:06:31;8.70;98.00
7204;DHT22;3643;52.460;13.322;2024-03-17T16:08:59;8.60;98.30